Time;durP1;ratioP1;P1;durP2;ratioP2;P2;SDS_P1;SDS_P2;PMS_P1;PMS_P2;Temp;Humidity;BMP_temperature;BMP_pressure;BME280_temperature;BME280_humidity;BME280_pressure;Samples;Min_cycle;Max_cycle;Signal;HPM_P1;HPM_P2
2021/01/08 00:01:26;;;;;;;35.75;17.00;;;-0.50;99.90;;;;;;5036663;28;20044;-78
2021/01/08 00:03:58;;;;;;;35.97;18.80;;;-0.50;99.90;;;;;;5053387;28;20399;-77
2021/01/08 00:06:24;;;;;;;31.65;16.77;;;-0.50;99.90;;;;;;5036210;28;20048;-77
2021/01/08 00:08:50;;;;;;;34.35;18.13;;;-0.50;99.90;;;;;;5035449;28;20068;-77
2021/01/08 00:11:20;;;;;;;33.42;17.08;;;-0.50;99.90;;;;;;5035581;28;20049;-78
2021/01/08 00:13:51;;;;;;;30.35;16.25;;;-0.60;99.90;;;;;;5036445;28;20160;-78
2021/01/08 00:16:22;;;;;;;35.97;18.27;;;-0.50;99.90;;;;;;5052245;28;20053;-78
2021/01/08 00:18:49;;;;;;;33.17;17.73;;;-0.50;99.90;;;;;;5051511;28;20071;-77
2021/01/08 00:21:20;;;;;;;37.85;20.38;;;-0.60;99.90;;;;;;5051990;28;20148;-77
2021/01/08 00:23:47;;;;;;;35.03;17.08;;;-0.60;99.90;;;;;;5051582;28;20068;-79
2021/01/08 00:26:22;;;;;;;33.20;17.05;;;-0.60;99.90;;;;;;5052176;28;20040;-77
2021/01/08 00:28:53;;;;;;;34.13;17.33;;;-0.60;99.90;;;;;;5035406;28;20144;-78
2021/01/08 00:31:24;;;;;;;33.67;16.88;;;-0.60;99.90;;;;;;5035796;28;20055;-78
2021/01/08 00:33:55;;;;;;;37.67;17.45;;;-0.60;99.90;;;;;;5035750;28;20495;-78
2021/01/08 00:36:27;;;;;;;32.00;16.27;;;-0.60;99.90;;;;;;5051310;28;20144;-77
2021/01/08 00:38:58;;;;;;;32.40;16.55;;;-0.60;99.90;;;;;;5035002;28;20506;-79
2021/01/08 00:41:33;;;;;;;33.80;17.23;;;-0.60;99.90;;;;;;5051257;28;20044;-78
2021/01/08 00:44:05;;;;;;;30.52;16.17;;;-0.60;99.90;;;;;;5051375;28;20051;-77
2021/01/08 00:46:42;;;;;;;34.05;17.95;;;-0.60;99.90;;;;;;5051171;28;20048;-78
2021/01/08 00:49:15;;;;;;;33.35;17.50;;;-0.60;99.90;;;;;;5035012;28;20052;-77
2021/01/08 00:51:42;;;;;;;35.13;18.38;;;-0.60;99.90;;;;;;5050859;28;20110;-77
2021/01/08 00:54:08;;;;;;;33.10;17.67;;;-0.60;99.90;;;;;;5034281;28;20483;-78
2021/01/08 00:56:48;;;;;;;34.05;17.48;;;-0.60;99.90;;;;;;5054837;28;20041;-78
2021/01/08 00:59:28;;;;;;;35.80;18.95;;;-0.60;99.90;;;;;;5056778;28;20460;-78
2021/01/08 01:01:54;;;;;;;31.42;16.90;;;-0.60;99.90;;;;;;5054477;28;20503;-78
2021/01/08 01:04:25;;;;;;;34.30;16.88;;;-0.60;99.90;;;;;;5071355;28;20036;-78
2021/01/08 01:06:56;;;;;;;34.17;18.33;;;-0.60;99.90;;;;;;5056456;28;20139;-78
2021/01/08 01:09:27;;;;;;;33.92;18.00;;;-0.60;99.90;;;;;;5069524;28;20502;-78
2021/01/08 01:11:59;;;;;;;36.65;17.60;;;-0.50;99.90;;;;;;5093352;28;20095;-78
2021/01/08 01:14:25;;;;;;;36.65;16.90;;;-0.60;99.90;;;;;;5076412;28;20076;-79
2021/01/08 01:16:56;;;;;;;33.80;17.70;;;-0.60;99.90;;;;;;5068566;28;20492;-78
2021/01/08 01:19:22;;;;;;;33.38;16.58;;;-0.60;99.90;;;;;;5055020;28;20053;-78
2021/01/08 01:21:53;;;;;;;33.85;17.75;;;-0.60;99.90;;;;;;5049819;28;20041;-78
2021/01/08 01:24:20;;;;;;;31.55;17.10;;;-0.60;99.90;;;;;;5050506;28;20045;-77
2021/01/08 01:26:46;;;;;;;31.33;17.25;;;-0.60;99.90;;;;;;5034602;28;20123;-78
2021/01/08 01:29:17;;;;;;;33.03;17.25;;;-0.60;99.90;;;;;;5050535;28;20048;-78
2021/01/08 01:31:48;;;;;;;30.48;17.75;;;-0.60;99.90;;;;;;5050508;28;20048;-78
2021/01/08 01:34:15;;;;;;;38.10;19.75;;;-0.60;99.90;;;;;;5051078;28;20140;-77
2021/01/08 01:36:41;;;;;;;36.67;17.73;;;-0.60;99.90;;;;;;5034125;28;20040;-78
2021/01/08 01:39:07;;;;;;;33.28;17.50;;;-0.60;99.90;;;;;;5050382;28;20147;-78
2021/01/08 01:41:33;;;;;;;36.05;17.40;;;-0.60;99.90;;;;;;5033739;28;20145;-77
2021/01/08 01:44:05;;;;;;;35.83;18.02;;;-0.70;99.90;;;;;;5051166;28;20061;-78
2021/01/08 01:46:36;;;;;;;42.47;18.95;;;-0.70;99.90;;;;;;5051176;28;20047;-77
2021/01/08 01:49:08;;;;;;;36.22;18.15;;;-0.60;99.90;;;;;;5050087;28;20045;-77
2021/01/08 01:51:39;;;;;;;37.28;19.55;;;-0.60;99.90;;;;;;5050628;28;20048;-77
2021/01/08 01:54:10;;;;;;;35.42;17.90;;;-0.60;99.90;;;;;;5050233;28;20055;-77
2021/01/08 01:56:41;;;;;;;38.75;18.67;;;-0.60;99.90;;;;;;5050079;28;20528;-78
2021/01/08 01:59:12;;;;;;;33.42;17.65;;;-0.60;99.90;;;;;;5050484;28;20057;-77
2021/01/08 02:01:39;;;;;;;37.03;18.70;;;-0.60;99.90;;;;;;5033096;28;20055;-78
2021/01/08 02:04:10;;;;;;;32.20;17.52;;;-0.60;99.90;;;;;;5049584;28;20094;-78
2021/01/08 02:06:43;;;;;;;33.75;18.73;;;-0.60;99.90;;;;;;5049564;28;20109;-77
2021/01/08 02:09:14;;;;;;;36.20;16.47;;;-0.60;99.90;;;;;;5049323;28;20571;-77
2021/01/08 02:11:52;;;;;;;33.55;17.67;;;-0.60;99.90;;;;;;5065390;28;20048;-77
2021/01/08 02:14:31;;;;;;;34.58;18.33;;;-0.60;99.90;;;;;;5049386;28;20079;-78
2021/01/08 02:17:03;;;;;;;36.00;18.23;;;-0.60;99.90;;;;;;5065575;28;20049;-78
2021/01/08 02:19:51;;;;;;;32.40;17.08;;;-0.60;99.90;;;;;;5050460;28;20044;-78
2021/01/08 02:22:27;;;;;;;35.25;17.88;;;-0.60;99.90;;;;;;5049216;28;20068;-78
2021/01/08 02:24:56;;;;;;;33.97;18.70;;;-0.60;99.90;;;;;;5049935;28;20595;-78
2021/01/08 02:27:24;;;;;;;37.28;19.00;;;-0.60;99.90;;;;;;5033120;28;20053;-78
2021/01/08 02:29:56;;;;;;;45.05;20.27;;;-0.60;99.90;;;;;;5065732;28;20051;-77
2021/01/08 02:32:24;;;;;;;39.47;19.55;;;-0.70;99.90;;;;;;5049514;28;20049;-78
2021/01/08 02:34:56;;;;;;;35.08;17.85;;;-0.70;99.90;;;;;;5049124;28;20488;-77
2021/01/08 02:37:29;;;;;;;37.67;19.17;;;-0.70;99.90;;;;;;5049354;28;20051;-78
2021/01/08 02:39:55;;;;;;;39.97;18.33;;;-0.70;99.90;;;;;;5048824;28;20140;-77
2021/01/08 02:42:23;;;;;;;35.08;18.65;;;-0.70;99.90;;;;;;5034723;28;20128;-77
2021/01/08 02:44:49;;;;;;;32.60;17.25;;;-0.70;99.90;;;;;;5052804;28;20500;-78
2021/01/08 02:47:20;;;;;;;38.67;20.27;;;-0.80;99.90;;;;;;5036671;28;20136;-78
2021/01/08 02:49:51;;;;;;;35.25;17.08;;;-0.80;99.90;;;;;;5052288;28;20068;-77
2021/01/08 02:52:22;;;;;;;35.22;18.35;;;-0.80;99.90;;;;;;5053046;28;20152;-78
2021/01/08 02:54:56;;;;;;;38.13;18.58;;;-0.80;99.90;;;;;;5051752;28;20613;-77
2021/01/08 02:57:28;;;;;;;;;;;-0.80;99.90;;;;;;5053110;28;20041;-77
2021/01/08 02:59:56;;;;;;;37.85;19.38;;;-0.80;99.90;;;;;;5052890;28;20015;-77
2021/01/08 03:02:28;;;;;;;;;;;-0.80;99.90;;;;;;5052911;28;20561;-78
2021/01/08 03:04:59;;;;;;;38.92;18.70;;;-0.80;99.90;;;;;;5052181;28;19920;-79
2021/01/08 03:07:32;;;;;;;35.40;17.42;;;-0.80;99.90;;;;;;5053512;28;20041;-78
2021/01/08 03:10:04;;;;;;;33.25;17.90;;;-0.80;99.90;;;;;;5052601;28;20047;-78
2021/01/08 03:12:35;;;;;;;40.72;19.15;;;-0.80;99.90;;;;;;5052360;28;20055;-78
2021/01/08 03:15:10;;;;;;;36.13;18.30;;;-0.80;99.90;;;;;;5068482;28;20045;-77
2021/01/08 03:17:37;;;;;;;32.17;16.55;;;-0.80;99.90;;;;;;5052231;28;20124;-79
2021/01/08 03:20:08;;;;;;;37.50;18.30;;;-0.80;99.90;;;;;;5052170;28;20045;-78
2021/01/08 03:22:40;;;;;;;34.15;17.70;;;-0.80;99.90;;;;;;5052125;28;20045;-78
2021/01/08 03:25:12;;;;;;;40.42;19.05;;;-0.80;99.90;;;;;;5051936;28;20052;-77
2021/01/08 03:27:43;;;;;;;33.97;18.42;;;-0.80;99.90;;;;;;5067780;28;20052;-78
2021/01/08 03:30:15;;;;;;;35.25;17.70;;;-0.80;99.90;;;;;;5052643;28;20041;-77
2021/01/08 03:32:46;;;;;;;34.63;17.30;;;-0.80;99.90;;;;;;5051923;28;20041;-78
2021/01/08 03:35:12;;;;;;;38.08;17.73;;;-0.80;99.90;;;;;;5051547;28;20087;-78
2021/01/08 03:37:43;;;;;;;34.63;17.52;;;-0.80;99.90;;;;;;5051606;28;20064;-78
2021/01/08 03:40:15;;;;;;;32.08;16.25;;;-0.80;99.90;;;;;;5051864;28;20053;-77
2021/01/08 03:42:46;;;;;;;33.65;17.42;;;-0.80;99.90;;;;;;5051630;28;20037;-79
2021/01/08 03:45:12;;;;;;;31.48;16.48;;;-0.70;99.90;;;;;;5068443;28;20504;-77
2021/01/08 03:47:44;;;;;;;35.83;16.83;;;-0.80;99.90;;;;;;5051538;28;20055;-78
2021/01/08 03:50:15;;;;;;;29.88;16.45;;;-0.80;99.90;;;;;;5051502;28;20128;-77
2021/01/08 03:52:41;;;;;;;29.88;16.70;;;-0.80;99.90;;;;;;5033880;28;20068;-78
2021/01/08 03:55:12;;;;;;;31.85;16.35;;;-0.80;99.90;;;;;;5051149;28;20737;-77
2021/01/08 03:57:43;;;;;;;34.80;17.20;;;-0.80;99.90;;;;;;5035363;28;20051;-78
2021/01/08 04:00:15;;;;;;;29.40;16.92;;;-0.80;99.90;;;;;;5051389;28;20063;-79
2021/01/08 04:02:46;;;;;;;29.45;15.30;;;-0.80;99.90;;;;;;5051885;28;20043;-78
2021/01/08 04:05:17;;;;;;;30.60;16.75;;;-0.80;99.90;;;;;;5051604;28;20515;-78
2021/01/08 04:07:49;;;;;;;27.60;14.20;;;-0.80;99.90;;;;;;5050756;28;20041;-78
2021/01/08 04:10:20;;;;;;;30.63;14.32;;;-0.80;99.90;;;;;;5051175;28;20043;-77
2021/01/08 04:12:51;;;;;;;28.13;15.35;;;-0.80;99.90;;;;;;5035170;28;20407;-78
2021/01/08 04:15:22;;;;;;;29.83;15.70;;;-0.80;99.90;;;;;;5051102;28;20041;-77
2021/01/08 04:17:53;;;;;;;26.98;14.75;;;-0.70;99.90;;;;;;5050466;28;20503;-78
2021/01/08 04:20:25;;;;;;;27.35;14.93;;;-0.70;99.90;;;;;;5051224;28;20746;-78
2021/01/08 04:22:56;;;;;;;28.65;15.35;;;-0.70;99.90;;;;;;5051522;28;20037;-77
2021/01/08 04:25:27;;;;;;;29.65;15.57;;;-0.70;99.90;;;;;;5050905;28;20500;-78
2021/01/08 04:27:58;;;;;;;32.03;16.13;;;-0.80;99.90;;;;;;5050156;28;20415;-79
2021/01/08 04:30:29;;;;;;;30.35;15.85;;;-0.80;99.90;;;;;;5050384;28;20052;-78
2021/01/08 04:33:01;;;;;;;30.95;15.63;;;-0.70;99.90;;;;;;5051741;28;20117;-78
2021/01/08 04:35:32;;;;;;;26.17;14.35;;;-0.70;99.90;;;;;;5050809;28;20041;-78
2021/01/08 04:38:03;;;;;;;30.42;15.48;;;-0.80;99.90;;;;;;5049986;28;20430;-78
2021/01/08 04:40:34;;;;;;;30.70;14.43;;;-0.70;99.90;;;;;;5050217;28;20048;-77
2021/01/08 04:43:06;;;;;;;31.27;15.20;;;-0.70;99.90;;;;;;5066268;28;20033;-78
2021/01/08 04:45:37;;;;;;;29.90;15.63;;;-0.70;99.90;;;;;;5034424;28;20385;-78
2021/01/08 04:48:11;;;;;;;26.35;14.82;;;-0.70;99.90;;;;;;5049852;28;20047;-78
2021/01/08 04:50:37;;;;;;;25.33;13.82;;;-0.70;99.90;;;;;;5050136;28;20051;-78
2021/01/08 04:53:09;;;;;;;27.80;13.25;;;-0.70;99.90;;;;;;5050432;28;20041;-78
2021/01/08 04:55:41;;;;;;;26.70;14.55;;;-0.70;99.90;;;;;;5050136;28;20044;-78
2021/01/08 04:58:12;;;;;;;27.30;13.90;;;-0.70;99.90;;;;;;5050106;28;20068;-77
2021/01/08 05:00:44;;;;;;;29.77;14.57;;;-0.70;99.90;;;;;;5049867;28;20044;-78
2021/01/08 05:03:15;;;;;;;27.98;14.98;;;-0.70;99.90;;;;;;5049719;28;20053;-78
2021/01/08 05:05:46;;;;;;;27.63;14.55;;;-0.60;99.90;;;;;;5049931;28;20047;-78
2021/01/08 05:08:12;;;;;;;31.60;15.93;;;-0.60;99.90;;;;;;5049876;28;20059;-78
2021/01/08 05:10:45;;;;;;;27.58;13.55;;;-0.70;99.90;;;;;;5034385;28;20041;-78
2021/01/08 05:13:17;;;;;;;28.55;15.15;;;-0.60;99.90;;;;;;5065806;28;20044;-78
2021/01/08 05:15:52;;;;;;;29.65;15.13;;;-0.60;99.90;;;;;;5050005;28;20045;-77
2021/01/08 05:18:20;;;;;;;31.73;16.23;;;-0.70;99.90;;;;;;5049524;28;20140;-78
2021/01/08 05:20:51;;;;;;;33.72;16.52;;;-0.70;99.90;;;;;;5050090;28;20045;-79
2021/01/08 05:23:23;;;;;;;28.23;15.38;;;-0.70;99.90;;;;;;5051217;28;20041;-78
2021/01/08 05:25:54;;;;;;;27.75;15.23;;;-0.70;99.90;;;;;;5065692;28;20518;-79
2021/01/08 05:28:25;;;;;;;29.50;15.30;;;-0.70;99.90;;;;;;5058107;28;20043;-78
2021/01/08 05:30:56;;;;;;;32.25;15.60;;;-0.70;99.90;;;;;;5054311;28;20032;-78
2021/01/08 05:33:28;;;;;;;30.20;15.20;;;-0.70;99.90;;;;;;5053861;28;20059;-77
2021/01/08 05:36:00;;;;;;;28.92;15.57;;;-0.70;99.90;;;;;;5069962;28;20044;-77
2021/01/08 05:38:34;;;;;;;31.73;16.42;;;-0.70;99.90;;;;;;5069683;28;20613;-77
2021/01/08 05:41:05;;;;;;;30.83;16.73;;;-0.70;99.90;;;;;;5054540;28;20665;-79
2021/01/08 05:43:44;;;;;;;31.40;16.02;;;-0.80;99.90;;;;;;5069402;28;20037;-77
2021/01/08 05:46:13;;;;;;;33.55;16.83;;;-0.80;99.90;;;;;;5069294;28;20598;-79
2021/01/08 05:48:53;;;;;;;34.88;17.33;;;-0.80;99.90;;;;;;5051981;28;20139;-79
2021/01/08 05:51:26;;;;;;;33.25;15.80;;;-0.80;99.90;;;;;;5048700;28;20479;-78
2021/01/08 05:53:58;;;;;;;;;;;-0.70;99.90;;;;;;5051805;28;20048;-78
2021/01/08 05:56:34;;;;;;;30.02;15.32;;;-0.70;99.90;;;;;;5068658;28;20496;-78
2021/01/08 05:59:07;;;;;;;34.22;16.73;;;-0.80;99.90;;;;;;5052381;28;20056;-79
2021/01/08 06:01:39;;;;;;;35.10;17.42;;;-0.80;99.90;;;;;;5053340;28;20048;-78
2021/01/08 06:04:11;;;;;;;32.13;15.40;;;-0.80;99.90;;;;;;5069388;28;20044;-78
2021/01/08 06:06:43;;;;;;;29.60;15.43;;;-0.80;99.90;;;;;;5053124;28;20048;-79
2021/01/08 06:09:15;;;;;;;32.35;15.70;;;-0.80;99.90;;;;;;5052441;28;20051;-78
2021/01/08 06:11:47;;;;;;;29.27;15.68;;;-0.80;99.90;;;;;;5052801;28;20051;-77
2021/01/08 06:14:16;;;;;;;31.17;16.08;;;-0.90;99.90;;;;;;5050878;28;20051;-78
2021/01/08 06:16:46;;;;;;;33.63;16.80;;;-0.80;99.90;;;;;;5074253;28;20131;-78
2021/01/08 06:19:18;;;;;;;33.00;16.88;;;-0.90;99.90;;;;;;5076318;28;20048;-79
2021/01/08 06:21:50;;;;;;;31.80;16.70;;;-0.90;99.90;;;;;;5093447;28;20036;-77
2021/01/08 06:24:26;;;;;;;29.42;14.70;;;-0.90;99.90;;;;;;5076314;28;20050;-78
2021/01/08 06:27:00;;;;;;;32.47;16.05;;;-0.90;99.90;;;;;;5076584;28;20051;-79
2021/01/08 06:29:39;;;;;;;36.40;16.23;;;-0.90;99.90;;;;;;5061956;28;20491;-79
2021/01/08 06:32:16;;;;;;;35.28;15.90;;;-0.90;99.90;;;;;;5056139;28;20044;-78
2021/01/08 06:34:46;;;;;;;31.95;16.48;;;-0.90;99.90;;;;;;5055201;28;20139;-78
2021/01/08 06:37:23;;;;;;;32.95;16.75;;;-0.90;99.90;;;;;;5063754;28;20442;-79
2021/01/08 06:39:56;;;;;;;29.30;15.45;;;-0.90;99.90;;;;;;5092029;28;20052;-78
2021/01/08 06:42:29;;;;;;;31.98;15.82;;;-0.90;99.90;;;;;;5075944;28;20050;-79
2021/01/08 06:45:00;;;;;;;32.92;15.77;;;-0.90;99.90;;;;;;5075960;28;20040;-78
2021/01/08 06:47:35;;;;;;;34.53;16.23;;;-0.90;99.90;;;;;;5092263;28;20514;-78
2021/01/08 06:50:12;;;;;;;33.70;17.70;;;-0.90;99.90;;;;;;5093460;28;20039;-79
2021/01/08 06:52:45;;;;;;;34.85;16.42;;;-1.00;99.90;;;;;;5092077;28;20047;-78
2021/01/08 06:55:18;;;;;;;31.92;15.98;;;-1.00;99.90;;;;;;5091758;28;20058;-79
2021/01/08 06:57:54;;;;;;;36.60;17.58;;;-1.00;99.90;;;;;;5063269;28;20650;-78
2021/01/08 07:00:29;;;;;;;32.40;16.77;;;-1.00;99.90;;;;;;5051461;28;20044;-78
2021/01/08 07:03:05;;;;;;;33.95;16.98;;;-1.00;99.90;;;;;;5050883;28;20044;-78
2021/01/08 07:05:37;;;;;;;34.80;17.98;;;-1.00;99.90;;;;;;5050818;28;20047;-77
2021/01/08 07:08:03;;;;;;;33.00;16.00;;;-1.00;99.90;;;;;;5051197;28;20049;-78
2021/01/08 07:10:35;;;;;;;32.42;16.90;;;-1.00;99.90;;;;;;5057064;28;20044;-77
2021/01/08 07:13:03;;;;;;;31.58;15.75;;;-1.00;99.90;;;;;;5079951;28;20054;-77
2021/01/08 07:15:32;;;;;;;31.70;16.40;;;-1.00;99.90;;;;;;5054638;28;20072;-78
2021/01/08 07:18:04;;;;;;;33.67;16.27;;;-1.00;99.90;;;;;;5051886;28;20068;-78
2021/01/08 07:20:35;;;;;;;32.22;15.70;;;-1.00;99.90;;;;;;5051422;28;20044;-78
2021/01/08 07:23:01;;;;;;;32.03;16.30;;;-1.00;99.90;;;;;;5053768;28;20143;-78
2021/01/08 07:25:40;;;;;;;32.58;17.17;;;-1.00;99.90;;;;;;5054588;28;20495;-78
2021/01/08 07:28:12;;;;;;;31.45;16.25;;;-1.00;99.90;;;;;;5050476;28;20059;-79
2021/01/08 07:30:44;;;;;;;33.80;16.88;;;-1.00;99.90;;;;;;5050748;28;20049;-79
2021/01/08 07:33:17;;;;;;;32.92;16.48;;;-1.00;99.90;;;;;;5050744;28;20152;-78
2021/01/08 07:35:48;;;;;;;33.97;17.35;;;-1.00;99.90;;;;;;5051112;28;20691;-78
2021/01/08 07:38:32;;;;;;;30.25;16.17;;;-1.00;99.90;;;;;;5062704;28;20054;-78
2021/01/08 07:41:03;;;;;;;;;;;-0.90;99.90;;;;;;5075789;28;20051;-79
2021/01/08 07:43:36;;;;;;;30.75;15.95;;;-1.00;99.90;;;;;;5058830;28;19947;-78
2021/01/08 07:46:07;;;;;;;29.70;15.80;;;-1.00;99.90;;;;;;5035096;28;20048;-78
2021/01/08 07:48:38;;;;;;;32.85;15.65;;;-1.00;99.90;;;;;;5050813;28;20045;-78
2021/01/08 07:51:12;;;;;;;31.48;15.45;;;-1.00;99.90;;;;;;5055485;28;20044;-78
2021/01/08 07:53:43;;;;;;;32.72;15.35;;;-1.00;99.90;;;;;;5063981;28;20050;-79
2021/01/08 07:56:18;;;;;;;32.40;15.82;;;-1.00;99.90;;;;;;5075349;28;20044;-78
2021/01/08 07:59:03;;;;;;;31.05;14.35;;;-1.00;99.90;;;;;;5074170;28;20048;-78
2021/01/08 08:01:36;;;;;;;27.17;14.43;;;-1.00;99.90;;;;;;5073620;28;20048;-78
2021/01/08 08:04:09;;;;;;;29.67;14.43;;;-0.90;99.90;;;;;;5091008;28;20037;-77
2021/01/08 08:06:44;;;;;;;28.50;15.50;;;-0.90;99.90;;;;;;5074387;28;20123;-78
2021/01/08 08:09:16;;;;;;;30.27;15.55;;;-0.90;99.90;;;;;;5074235;28;20044;-77
2021/01/08 08:11:47;;;;;;;29.83;15.55;;;-0.90;99.90;;;;;;5074052;28;20388;-78
2021/01/08 08:14:19;;;;;;;28.30;14.50;;;-0.80;99.90;;;;;;5074133;28;20044;-78
2021/01/08 08:16:51;;;;;;;32.55;15.65;;;-0.80;99.90;;;;;;5061083;28;20131;-78
2021/01/08 08:19:32;;;;;;;27.75;14.10;;;-0.80;99.90;;;;;;5054603;28;20521;-79
2021/01/08 08:21:59;;;;;;;30.80;15.50;;;-0.80;99.90;;;;;;5053329;28;20056;-78
2021/01/08 08:24:27;;;;;;;27.30;14.88;;;-0.80;99.90;;;;;;5053123;28;20072;-78
2021/01/08 08:26:58;;;;;;;27.88;14.18;;;-0.80;99.90;;;;;;5053969;28;20044;-79
2021/01/08 08:29:26;;;;;;;30.10;14.77;;;-0.70;99.90;;;;;;5050287;28;20518;-77
2021/01/08 08:31:57;;;;;;;31.25;15.52;;;-0.70;99.90;;;;;;5060395;28;20043;-78
2021/01/08 08:34:31;;;;;;;27.75;13.98;;;-0.80;99.90;;;;;;5089404;28;20048;-77
2021/01/08 08:37:09;;;;;;;26.20;14.20;;;-0.80;99.90;;;;;;5063392;28;20094;-78
2021/01/08 08:39:41;;;;;;;29.55;14.15;;;-0.80;99.90;;;;;;5052665;28;20036;-78
2021/01/08 08:42:19;;;;;;;30.85;15.93;;;-0.70;99.90;;;;;;5052908;28;20051;-76
2021/01/08 08:44:51;;;;;;;27.20;14.30;;;-0.70;99.90;;;;;;5053161;28;20045;-76
2021/01/08 08:47:22;;;;;;;25.25;14.15;;;-0.70;99.90;;;;;;5068552;28;20055;-78
2021/01/08 08:49:53;;;;;;;27.00;13.65;;;-0.70;99.90;;;;;;5052694;28;20051;-79
2021/01/08 08:52:28;;;;;;;26.90;14.25;;;-0.60;99.90;;;;;;5053644;28;20055;-77
2021/01/08 08:54:59;;;;;;;25.13;13.23;;;-0.60;99.90;;;;;;5055478;28;20410;-78
2021/01/08 08:57:31;;;;;;;28.48;12.82;;;-0.60;99.90;;;;;;5051249;28;20404;-79
2021/01/08 09:00:03;;;;;;;28.38;14.07;;;-0.60;99.90;;;;;;5036655;28;20048;-78
2021/01/08 09:02:30;;;;;;;24.40;12.73;;;-0.60;99.90;;;;;;5068690;28;20419;-77
2021/01/08 09:05:02;;;;;;;29.17;14.77;;;-0.50;99.90;;;;;;5048652;28;20059;-77
2021/01/08 09:08:05;;;;;;;28.55;16.13;;;-0.60;99.90;;;;;;5033946;28;20044;-76
2021/01/08 09:11:05;;;;;;;30.98;17.02;;;-0.50;99.90;;;;;;5049263;28;20406;-77
2021/01/08 09:13:53;;;;;;;30.67;15.80;;;-0.50;99.90;;;;;;5027543;28;20057;-77
2021/01/08 09:16:36;;;;;;;28.10;15.10;;;-0.50;99.90;;;;;;5047774;28;20041;-77
2021/01/08 09:19:20;;;;;;;28.63;16.33;;;-0.50;99.90;;;;;;5040354;28;20046;-77
2021/01/08 09:21:52;;;;;;;26.90;14.23;;;-0.50;99.90;;;;;;5072986;28;20410;-77
2021/01/08 09:24:28;;;;;;;26.77;15.90;;;-0.40;99.90;;;;;;5088744;28;20062;-77
2021/01/08 09:27:04;;;;;;;26.35;14.23;;;-0.40;99.90;;;;;;5073373;28;20143;-77
2021/01/08 09:29:36;;;;;;;28.65;15.75;;;-0.30;99.90;;;;;;5087602;28;20044;-77
2021/01/08 09:32:07;;;;;;;33.80;17.88;;;-0.30;99.90;;;;;;5067699;28;20066;-77
2021/01/08 09:34:39;;;;;;;31.15;14.82;;;-0.30;99.90;;;;;;5072548;28;20126;-79
2021/01/08 09:37:15;;;;;;;26.70;13.73;;;-0.30;99.90;;;;;;5073003;28;20048;-77
2021/01/08 09:39:47;;;;;;;27.08;13.90;;;-0.20;99.90;;;;;;5071511;28;20043;-78
2021/01/08 09:42:19;;;;;;;27.90;13.95;;;-0.20;99.90;;;;;;5071702;28;20482;-79
2021/01/08 09:44:50;;;;;;;26.48;14.88;;;-0.20;99.90;;;;;;5068702;28;20044;-77
2021/01/08 09:47:33;;;;;;;24.95;13.85;;;-0.20;99.90;;;;;;5051319;28;20040;-78
2021/01/08 09:50:01;;;;;;;27.13;14.13;;;-0.20;99.90;;;;;;5054198;28;20036;-77
2021/01/08 09:52:32;;;;;;;20.67;12.13;;;-0.20;99.90;;;;;;5067772;28;20040;-76
2021/01/08 09:55:04;;;;;;;25.52;13.07;;;-0.20;99.90;;;;;;5052609;28;20044;-78
2021/01/08 09:57:35;;;;;;;25.45;13.35;;;-0.20;99.90;;;;;;5059009;28;20067;-79
2021/01/08 10:00:09;;;;;;;22.58;12.13;;;-0.20;99.90;;;;;;5087900;28;20486;-77
2021/01/08 10:02:41;;;;;;;;;;;-0.20;99.90;;;;;;5072799;28;20067;-77
2021/01/08 10:05:19;;;;;;;21.58;12.23;;;-0.20;99.90;;;;;;5087387;28;19977;-79
2021/01/08 10:07:50;;;;;;;24.50;13.32;;;-0.20;99.90;;;;;;5072490;28;20127;-77
2021/01/08 10:10:27;;;;;;;21.55;11.55;;;-0.20;99.90;;;;;;5072495;28;20051;-75
2021/01/08 10:12:57;;;;;;;23.27;13.23;;;-0.10;99.90;;;;;;5071792;28;20048;-77
2021/01/08 10:15:35;;;;;;;23.70;12.02;;;0.00;99.90;;;;;;5072544;28;20391;-78
2021/01/08 10:18:12;;;;;;;21.20;11.32;;;0.00;99.90;;;;;;5088639;28;20047;-77
2021/01/08 10:21:06;;;;;;;20.65;11.02;;;0.00;99.90;;;;;;5072801;28;20147;-77
2021/01/08 10:23:46;;;;;;;22.20;11.43;;;0.00;99.90;;;;;;5088163;28;20222;-77
2021/01/08 10:26:18;;;;;;;20.65;11.82;;;0.00;99.90;;;;;;5072717;28;20032;-77
2021/01/08 10:28:51;;;;;;;25.08;13.00;;;0.10;99.90;;;;;;5072040;28;20044;-77
2021/01/08 10:31:24;;;;;;;20.15;11.20;;;0.10;99.90;;;;;;5072619;28;20410;-77
2021/01/08 10:33:59;;;;;;;19.35;10.90;;;0.10;99.90;;;;;;5072270;28;20123;-77
2021/01/08 10:36:32;;;;;;;23.02;11.75;;;0.20;99.90;;;;;;5071910;28;20047;-79
2021/01/08 10:39:03;;;;;;;20.77;11.63;;;0.20;99.90;;;;;;5071951;28;20557;-77
2021/01/08 10:41:34;;;;;;;20.83;12.70;;;0.30;99.90;;;;;;5088313;28;20815;-77
2021/01/08 10:44:06;;;;;;;20.63;11.10;;;0.30;99.90;;;;;;5072261;28;20110;-77
2021/01/08 10:46:38;;;;;;;20.73;12.23;;;0.30;99.90;;;;;;5072982;28;20448;-77
2021/01/08 10:49:09;;;;;;;21.20;11.15;;;0.30;99.90;;;;;;5071508;28;20040;-78
2021/01/08 10:51:40;;;;;;;20.10;12.15;;;0.30;99.90;;;;;;5089024;28;20560;-78
2021/01/08 10:54:17;;;;;;;22.17;11.77;;;0.40;99.90;;;;;;5072854;28;20410;-77
2021/01/08 10:56:48;;;;;;;17.52;10.38;;;0.40;99.90;;;;;;5071910;28;20051;-74
2021/01/08 10:59:19;;;;;;;21.00;11.88;;;0.30;99.90;;;;;;5087255;28;20054;-78
2021/01/08 11:01:51;;;;;;;20.80;11.35;;;0.40;99.90;;;;;;5072850;28;20067;-79
2021/01/08 11:04:22;;;;;;;23.23;11.10;;;0.40;99.90;;;;;;5092701;28;20044;-78
2021/01/08 11:06:58;;;;;;;19.50;12.00;;;0.50;99.90;;;;;;5076881;28;20040;-78
2021/01/08 11:09:29;;;;;;;19.35;11.52;;;0.50;99.90;;;;;;5076161;28;20040;-78
2021/01/08 11:11:55;;;;;;;19.73;11.32;;;0.50;99.90;;;;;;5067395;28;20044;-78
2021/01/08 11:14:27;;;;;;;19.48;12.00;;;0.60;99.90;;;;;;5067638;28;20044;-78
2021/01/08 11:16:59;;;;;;;20.67;11.40;;;0.70;99.90;;;;;;5073626;28;20036;-78
2021/01/08 11:19:30;;;;;;;21.40;11.32;;;0.60;99.90;;;;;;5054697;28;20053;-78
2021/01/08 11:22:02;;;;;;;21.70;13.15;;;0.50;99.90;;;;;;5062999;28;20508;-78
2021/01/08 11:24:28;;;;;;;17.85;10.57;;;0.50;99.90;;;;;;5049188;28;20045;-78
2021/01/08 11:26:59;;;;;;;20.58;12.00;;;0.50;99.90;;;;;;5045241;28;20700;-78
2021/01/08 11:29:30;;;;;;;23.33;12.05;;;0.40;99.90;;;;;;5082122;28;20086;-77
2021/01/08 11:32:06;;;;;;;20.60;12.05;;;0.40;99.90;;;;;;5072427;28;20118;-78
2021/01/08 11:34:40;;;;;;;18.65;10.75;;;0.30;99.90;;;;;;5035929;28;20136;-77
2021/01/08 11:37:10;;;;;;;17.95;10.85;;;0.30;99.90;;;;;;5078785;28;20159;-78
2021/01/08 11:39:41;;;;;;;23.65;11.85;;;0.30;99.90;;;;;;5075793;28;20078;-77
2021/01/08 11:42:13;;;;;;;21.98;11.60;;;0.40;99.90;;;;;;5067565;28;20078;-77
2021/01/08 11:44:39;;;;;;;21.92;12.10;;;0.50;99.90;;;;;;5067295;28;20127;-77
2021/01/08 11:47:05;;;;;;;19.42;11.30;;;0.60;99.90;;;;;;5076012;28;20063;-78
2021/01/08 11:49:37;;;;;;;16.75;10.90;;;0.60;99.90;;;;;;5069635;28;20509;-78
2021/01/08 11:52:04;;;;;;;21.70;12.82;;;0.60;99.90;;;;;;5094321;28;20128;-78
2021/01/08 11:54:35;;;;;;;16.58;10.38;;;0.50;99.90;;;;;;5094890;28;20067;-78
2021/01/08 11:57:03;;;;;;;17.63;11.82;;;0.50;99.90;;;;;;5077203;28;20048;-77
2021/01/08 11:59:35;;;;;;;18.30;11.32;;;0.50;99.90;;;;;;5091548;28;20036;-77
2021/01/08 12:02:07;;;;;;;20.27;10.95;;;0.50;99.90;;;;;;5075696;28;20055;-77
2021/01/08 12:04:39;;;;;;;20.00;10.55;;;0.50;99.90;;;;;;5076717;28;20577;-78
2021/01/08 12:07:10;;;;;;;19.00;10.90;;;0.50;99.90;;;;;;5092973;28;20050;-79
2021/01/08 12:09:41;;;;;;;17.92;9.85;;;0.50;99.90;;;;;;5075272;28;20048;-78
2021/01/08 12:12:08;;;;;;;15.07;9.55;;;0.60;99.90;;;;;;5074371;28;20143;-77
2021/01/08 12:14:39;;;;;;;17.65;10.40;;;0.60;99.90;;;;;;5074583;28;20435;-77
2021/01/08 12:17:10;;;;;;;17.20;10.52;;;0.50;99.90;;;;;;5089828;28;20062;-78
2021/01/08 12:19:42;;;;;;;15.82;9.55;;;0.50;99.90;;;;;;5091368;28;20126;-77
2021/01/08 12:22:15;;;;;;;15.82;9.05;;;0.50;99.90;;;;;;5090230;28;20036;-78
2021/01/08 12:24:41;;;;;;;16.23;8.88;;;0.50;99.90;;;;;;5069381;28;20499;-78
2021/01/08 12:27:13;;;;;;;15.43;9.23;;;0.60;99.90;;;;;;5070759;28;20049;-77
2021/01/08 12:29:44;;;;;;;15.77;9.20;;;0.50;99.90;;;;;;5070180;28;20595;-77
2021/01/08 12:32:15;;;;;;;17.75;9.73;;;0.50;99.90;;;;;;5054473;28;20049;-76
2021/01/08 12:34:47;;;;;;;15.80;8.18;;;0.50;99.90;;;;;;5071509;28;20041;-76
2021/01/08 12:37:18;;;;;;;13.98;8.45;;;0.50;99.90;;;;;;5070560;28;20048;-77
2021/01/08 12:39:50;;;;;;;16.05;8.55;;;0.60;99.90;;;;;;5054115;28;20048;-77
2021/01/08 12:42:22;;;;;;;15.45;8.98;;;0.60;99.90;;;;;;5054757;28;20139;-78
2021/01/08 12:44:53;;;;;;;13.80;7.68;;;0.70;99.90;;;;;;5054833;28;20047;-77
2021/01/08 12:47:24;;;;;;;13.27;7.97;;;0.70;99.90;;;;;;5054641;28;20041;-76
2021/01/08 12:49:58;;;;;;;14.70;9.35;;;0.70;99.90;;;;;;5054858;28;20071;-77
2021/01/08 12:52:29;;;;;;;12.23;7.28;;;0.70;99.90;;;;;;5070768;28;20036;-77
2021/01/08 12:55:01;;;;;;;11.73;7.47;;;0.80;99.90;;;;;;5070121;28;20066;-75